createdAt,value
2022-10-05T00:02:35.493Z,99086.00
2022-10-05T00:05:41.845Z,99087.72
2022-10-05T00:08:48.619Z,99087.63
2022-10-05T00:11:57.345Z,99085.72
2022-10-05T00:15:04.363Z,99077.88
2022-10-05T00:18:17.302Z,99073.44
2022-10-05T00:21:25.844Z,99077.88
2022-10-05T00:24:32.853Z,99080.56
2022-10-05T00:27:42.170Z,99074.56
2022-10-05T00:30:48.347Z,99071.16
2022-10-05T00:33:55.650Z,99069.34
2022-10-05T00:37:03.495Z,99065.91
2022-10-05T00:40:23.454Z,99066.72
2022-10-05T00:43:57.055Z,99064.19
2022-10-05T00:47:16.796Z,99058.09
2022-10-05T00:50:51.881Z,99044.00
2022-10-05T00:54:17.375Z,99028.25
2022-10-05T00:57:36.979Z,99018.38
2022-10-05T01:00:53.273Z,99022.66
2022-10-05T01:04:08.527Z,99013.13
2022-10-05T01:07:24.354Z,99001.75
2022-10-05T01:10:35.663Z,99005.31
2022-10-05T01:13:52.556Z,98992.28
2022-10-05T01:17:06.141Z,99000.94
2022-10-05T01:20:26.962Z,98996.41
2022-10-05T01:24:06.378Z,99008.47
2022-10-05T01:27:53.984Z,99004.94
2022-10-05T01:31:06.852Z,99006.66
2022-10-05T01:34:22.473Z,99013.47
2022-10-05T01:37:35.628Z,99029.13
2022-10-05T01:40:50.905Z,99040.41
2022-10-05T01:44:03.874Z,99043.13
2022-10-05T01:47:14.539Z,99029.97
2022-10-05T01:50:31.807Z,99015.16
2022-10-05T01:53:49.689Z,99010.81
2022-10-05T01:57:06.079Z,99013.34
2022-10-05T02:00:18.119Z,99001.91
2022-10-05T02:03:30.155Z,98999.28
2022-10-05T02:06:41.876Z,98993.06
2022-10-05T02:09:56.481Z,98985.16
2022-10-05T02:13:06.413Z,98976.31
2022-10-05T02:16:20.144Z,98978.78
2022-10-05T02:19:30.722Z,98980.56
2022-10-05T02:22:41.109Z,98981.38
2022-10-05T02:25:50.603Z,98969.13
2022-10-05T02:29:01.248Z,98967.31
2022-10-05T02:32:20.968Z,98980.38
2022-10-05T02:35:27.670Z,98980.41
2022-10-05T02:38:43.980Z,98976.91
2022-10-05T02:41:56.683Z,98970.81
2022-10-05T02:45:14.334Z,98969.13
2022-10-05T02:48:37.264Z,98966.66
2022-10-05T02:51:52.274Z,98982.63
2022-10-05T02:55:10.524Z,98988.94
2022-10-05T02:58:19.808Z,98992.69
2022-10-05T03:01:30.981Z,98992.91
2022-10-05T03:04:45.262Z,98982.75
2022-10-05T03:08:01.156Z,98995.91
2022-10-05T03:11:16.494Z,99003.91
2022-10-05T03:14:29.999Z,99012.75
2022-10-05T03:17:43.852Z,99026.72
2022-10-05T03:21:03.135Z,99032.78
2022-10-05T03:24:29.365Z,99026.84
2022-10-05T03:27:44.651Z,99036.63
2022-10-05T03:31:00.210Z,99032.28
2022-10-05T03:34:17.285Z,99034.09
2022-10-05T03:37:31.395Z,99041.97
2022-10-05T03:40:41.830Z,99039.41
2022-10-05T03:44:18.041Z,99035.91
2022-10-05T03:47:33.060Z,99016.81
2022-10-05T03:50:48.657Z,99009.81
2022-10-05T03:54:03.955Z,98981.84
2022-10-05T03:57:15.488Z,98974.91
2022-10-05T04:00:25.874Z,98975.72
2022-10-05T04:03:42.291Z,98972.16
2022-10-05T04:06:52.000Z,98959.03
2022-10-05T04:10:03.978Z,98946.88
2022-10-05T04:13:16.520Z,98939.09
2022-10-05T04:16:28.729Z,98944.31
2022-10-05T04:19:40.438Z,98960.00
2022-10-05T04:22:54.848Z,98974.72
2022-10-05T04:26:09.683Z,98981.66
2022-10-05T04:29:22.499Z,98991.28
2022-10-05T04:32:34.255Z,98992.09
2022-10-05T04:35:51.081Z,98998.44
2022-10-05T04:39:11.640Z,98987.19
2022-10-05T04:42:31.898Z,98985.59
2022-10-05T04:45:50.390Z,98991.13
2022-10-05T04:49:10.887Z,98990.25
2022-10-05T04:52:26.411Z,98982.63
2022-10-05T04:55:39.151Z,98992.00
2022-10-05T04:59:10.268Z,98983.31
2022-10-05T05:02:25.547Z,98980.81
2022-10-05T05:06:05.132Z,98979.94
2022-10-05T05:09:26.932Z,98977.41
2022-10-05T05:12:48.914Z,98968.53
2022-10-05T05:16:04.300Z,98968.44
2022-10-05T05:19:26.626Z,98970.03
2022-10-05T05:22:40.974Z,98968.34
2022-10-05T05:25:54.093Z,98968.13
2022-10-05T05:29:10.796Z,98968.72
2022-10-05T05:32:31.219Z,98958.13
2022-10-05T05:35:56.687Z,98971.19
2022-10-05T05:39:22.344Z,98992.91
2022-10-05T05:42:37.728Z,99016.50
2022-10-05T05:45:47.604Z,99011.38
2022-10-05T05:49:00.593Z,99007.19
2022-10-05T05:52:17.595Z,98991.63
2022-10-05T05:55:30.332Z,99000.94
2022-10-05T05:58:46.916Z,98996.28
2022-10-05T06:01:59.306Z,98993.56
2022-10-05T06:05:26.467Z,98992.53
2022-10-05T06:08:39.574Z,98995.06
2022-10-05T06:11:57.723Z,98993.09
2022-10-05T06:15:17.036Z,98986.72
2022-10-05T06:18:26.038Z,98984.59
2022-10-05T06:21:47.510Z,98980.72
2022-10-05T06:25:04.126Z,98984.44
2022-10-05T06:28:13.615Z,98992.47
2022-10-05T06:31:54.204Z,98982.97
2022-10-05T06:35:19.991Z,98995.91
2022-10-05T06:38:47.819Z,98996.78
2022-10-05T06:42:11.749Z,98996.97
2022-10-05T06:46:06.759Z,99003.22
2022-10-05T06:49:23.672Z,99010.25
2022-10-05T06:53:10.557Z,99008.44
2022-10-05T06:56:24.451Z,99005.34
2022-10-05T06:59:37.710Z,98999.97
2022-10-05T07:02:51.489Z,98995.84
2022-10-05T07:06:10.008Z,98999.44
2022-10-05T07:09:31.604Z,98994.09
2022-10-05T07:12:55.014Z,98988.00
2022-10-05T07:16:08.047Z,98992.38
2022-10-05T07:19:27.831Z,98993.13
2022-10-05T07:22:55.030Z,98984.88
2022-10-05T07:26:07.857Z,98974.69
2022-10-05T07:29:25.741Z,98977.63
2022-10-05T07:32:38.228Z,98978.91
2022-10-05T07:36:08.863Z,98990.19
2022-10-05T07:39:21.586Z,98975.88
2022-10-05T07:42:50.671Z,98978.28
2022-10-05T07:46:14.702Z,98986.94
2022-10-05T07:49:29.110Z,98986.63
2022-10-05T07:52:44.617Z,98989.66
2022-10-05T07:55:56.610Z,98995.63
2022-10-05T07:59:08.918Z,98987.16
2022-10-05T08:02:27.093Z,98989.38
2022-10-05T08:05:36.142Z,98982.66
2022-10-05T08:08:51.893Z,98984.84
2022-10-05T08:12:07.546Z,98992.34
2022-10-05T08:15:20.698Z,98997.06
2022-10-05T08:18:45.491Z,99013.88
2022-10-05T08:21:57.238Z,99013.22
2022-10-05T08:25:08.455Z,99005.72
2022-10-05T08:28:21.512Z,99009.28
2022-10-05T08:31:32.213Z,99006.63
2022-10-05T08:34:54.295Z,98999.44
2022-10-05T08:38:03.368Z,98999.13
2022-10-05T08:41:49.379Z,99000.03
2022-10-05T08:45:32.165Z,99004.28
2022-10-05T08:49:14.214Z,99019.38
2022-10-05T08:52:32.164Z,99007.22
2022-10-05T08:55:48.027Z,99003.47
2022-10-05T08:59:27.851Z,99007.31
2022-10-05T09:02:46.996Z,99003.81
2022-10-05T09:06:33.717Z,98990.91
2022-10-05T09:10:10.101Z,99005.34
2022-10-05T09:13:28.772Z,98999.75
2022-10-05T09:17:00.399Z,99001.34
2022-10-05T09:20:25.774Z,99004.66
2022-10-05T09:23:43.080Z,99008.91
2022-10-05T09:27:06.440Z,98989.81
2022-10-05T09:30:28.335Z,98996.59
2022-10-05T09:34:23.251Z,98996.13
2022-10-05T09:37:47.478Z,98998.34
2022-10-05T09:41:26.102Z,99005.09
2022-10-05T09:45:12.156Z,99005.38
2022-10-05T09:48:59.614Z,98999.25
2022-10-05T09:52:19.931Z,99013.56
2022-10-05T09:56:00.649Z,98998.09
2022-10-05T09:59:40.918Z,99000.78
2022-10-05T10:03:25.277Z,98998.06
2022-10-05T10:07:04.125Z,99006.78
2022-10-05T10:10:31.747Z,99007.34
2022-10-05T10:14:03.662Z,99006.91
2022-10-05T10:17:19.711Z,99018.31
2022-10-05T10:20:41.718Z,99015.47
2022-10-05T10:24:06.976Z,99028.94
2022-10-05T10:27:23.571Z,99024.09
2022-10-05T10:31:00.780Z,99011.91
2022-10-05T10:34:26.146Z,99016.59
2022-10-05T10:37:58.702Z,99013.28
2022-10-05T10:41:42.928Z,99010.09
2022-10-05T10:45:03.348Z,98995.31
2022-10-05T10:48:14.638Z,99004.84
2022-10-05T10:51:39.684Z,99002.59
2022-10-05T10:55:18.921Z,98999.00
2022-10-05T10:58:56.795Z,98993.19
2022-10-05T11:02:28.908Z,98999.28
2022-10-05T11:05:50.615Z,98991.88
2022-10-05T11:09:19.192Z,98998.63
2022-10-05T11:13:08.503Z,99005.41
2022-10-05T11:16:34.183Z,98989.25
2022-10-05T11:20:05.604Z,98988.94
2022-10-05T11:23:37.971Z,98997.75
2022-10-05T11:27:00.714Z,98987.16
2022-10-05T11:30:50.383Z,98992.72
2022-10-05T11:34:45.962Z,98991.56
2022-10-05T11:38:21.054Z,98992.00
2022-10-05T11:41:58.633Z,98985.81
2022-10-05T11:45:22.179Z,98970.28
2022-10-05T11:48:54.121Z,98984.16
2022-10-05T11:52:09.431Z,98979.38
2022-10-05T11:55:27.447Z,98975.00
2022-10-05T11:58:37.312Z,98986.34
2022-10-05T12:01:53.621Z,98979.03
2022-10-05T12:05:07.165Z,98966.13
2022-10-05T12:08:26.405Z,98964.69
2022-10-05T12:11:54.329Z,98953.88
2022-10-05T12:15:11.634Z,98937.03
2022-10-05T12:18:25.141Z,98949.63
2022-10-05T12:21:37.122Z,98941.19
2022-10-05T12:25:03.659Z,98934.94
2022-10-05T12:28:18.411Z,98943.13
2022-10-05T12:31:37.176Z,98941.34
2022-10-05T12:34:58.992Z,98939.78
2022-10-05T12:38:14.690Z,98929.44
2022-10-05T12:41:28.821Z,98930.16
2022-10-05T12:44:54.449Z,98926.03
2022-10-05T12:48:22.497Z,98922.19
2022-10-05T12:51:38.014Z,98916.41
2022-10-05T12:54:51.335Z,98897.97
2022-10-05T12:58:09.549Z,98906.75
2022-10-05T13:01:30.193Z,98910.84
2022-10-05T13:04:48.012Z,98912.06
2022-10-05T13:08:15.071Z,98912.75
2022-10-05T13:11:26.895Z,98904.59
2022-10-05T13:14:52.675Z,98899.53
2022-10-05T13:18:13.388Z,98901.91
2022-10-05T13:21:24.963Z,98897.31
2022-10-05T13:24:46.394Z,98904.09
2022-10-05T13:28:03.112Z,98899.63
2022-10-05T13:31:16.176Z,98885.38
2022-10-05T13:34:35.399Z,98886.22
2022-10-05T13:37:49.880Z,98891.78
2022-10-05T13:41:09.772Z,98893.56
2022-10-05T13:44:25.037Z,98884.28
2022-10-05T13:47:37.985Z,98891.03
2022-10-05T13:50:54.498Z,98883.22
2022-10-05T13:54:07.817Z,98875.84
2022-10-05T13:57:21.756Z,98879.44
2022-10-05T14:00:29.778Z,98869.31
2022-10-05T14:03:38.018Z,98867.50
2022-10-05T14:06:48.713Z,98872.22
2022-10-05T14:09:54.549Z,98856.06
2022-10-05T14:13:01.262Z,98866.69
2022-10-05T14:16:25.553Z,98870.78
2022-10-05T14:19:37.035Z,98871.97
2022-10-05T14:22:57.063Z,98878.75
2022-10-05T14:26:04.660Z,98878.38
2022-10-05T14:29:21.448Z,98875.84
2022-10-05T14:32:29.920Z,98871.50
2022-10-05T14:35:49.210Z,98870.53
2022-10-05T14:39:03.744Z,98873.28
2022-10-05T14:42:21.644Z,98858.47
2022-10-05T14:45:30.258Z,98866.41
2022-10-05T14:48:44.250Z,98871.72
2022-10-05T14:51:51.673Z,98865.94
2022-10-05T14:55:06.112Z,98861.13
2022-10-05T14:58:27.092Z,98872.16
2022-10-05T15:01:35.304Z,98865.88
2022-10-05T15:04:47.543Z,98865.59
2022-10-05T15:07:57.403Z,98861.75
2022-10-05T15:11:11.780Z,98848.44
2022-10-05T15:14:22.321Z,98851.91
2022-10-05T15:17:34.198Z,98838.25
2022-10-05T15:20:47.939Z,98839.91
2022-10-05T15:23:57.716Z,98838.19
2022-10-05T15:27:08.398Z,98836.44
2022-10-05T15:30:18.290Z,98842.34
2022-10-05T15:33:33.725Z,98828.63
2022-10-05T15:36:46.194Z,98833.53
2022-10-05T15:39:57.807Z,98824.44
2022-10-05T15:43:13.284Z,98821.28
2022-10-05T15:46:23.705Z,98815.56
2022-10-05T15:49:40.385Z,98817.72
2022-10-05T15:52:52.158Z,98813.94
2022-10-05T15:56:03.609Z,98821.78
2022-10-05T15:59:23.279Z,98824.13
2022-10-05T16:02:36.191Z,98821.19
2022-10-05T16:06:06.881Z,98828.59
2022-10-05T16:09:28.847Z,98830.91
2022-10-05T16:12:49.473Z,98834.91
2022-10-05T16:16:05.669Z,98828.38
2022-10-05T16:19:20.846Z,98833.44
2022-10-05T16:22:34.888Z,98825.81
2022-10-05T16:25:50.631Z,98825.09
2022-10-05T16:29:06.483Z,98833.22
2022-10-05T16:32:20.607Z,98828.88
2022-10-05T16:35:36.545Z,98828.34
2022-10-05T16:38:50.962Z,98835.84
2022-10-05T16:42:06.974Z,98833.53
2022-10-05T16:45:27.044Z,98827.72
2022-10-05T16:48:42.228Z,98828.00
2022-10-05T16:51:57.025Z,98829.38
2022-10-05T16:55:08.511Z,98825.47
2022-10-05T16:58:19.858Z,98820.38
2022-10-05T17:01:43.830Z,98827.84
2022-10-05T17:05:03.636Z,98823.38
2022-10-05T17:08:36.811Z,98816.78
2022-10-05T17:11:57.247Z,98821.59
2022-10-05T17:15:20.983Z,98816.56
2022-10-05T17:18:33.236Z,98816.19
2022-10-05T17:21:47.892Z,98828.75
2022-10-05T17:25:03.353Z,98819.41
2022-10-05T17:28:28.499Z,98815.38
2022-10-05T17:31:35.290Z,98818.44
2022-10-05T17:35:02.952Z,98817.66
2022-10-05T17:38:18.346Z,98832.00
2022-10-05T17:41:28.397Z,98821.84
2022-10-05T17:44:33.957Z,98818.47
2022-10-05T17:47:59.510Z,98802.44
2022-10-05T17:51:26.326Z,98816.75
2022-10-05T17:55:19.206Z,98809.81
2022-10-05T17:59:04.434Z,98812.75
2022-10-05T18:02:23.475Z,98820.84
2022-10-05T18:05:32.696Z,98815.84
2022-10-05T18:08:40.481Z,98811.59
2022-10-05T18:12:06.340Z,98812.44
2022-10-05T18:15:49.433Z,98822.13
2022-10-05T18:19:01.148Z,98835.63
2022-10-05T18:22:30.919Z,98823.28
2022-10-05T18:25:47.979Z,98827.16
2022-10-05T18:29:14.122Z,98837.06
2022-10-05T18:32:27.434Z,98832.06
2022-10-05T18:35:39.697Z,98832.34
2022-10-05T18:38:58.367Z,98830.00
2022-10-05T18:42:16.908Z,98826.81
2022-10-05T18:45:33.438Z,98828.00
2022-10-05T18:48:48.822Z,98836.38
2022-10-05T18:52:03.518Z,98840.28
2022-10-05T18:55:20.238Z,98842.34
2022-10-05T18:58:30.011Z,98837.47
2022-10-05T19:02:07.210Z,98832.38
2022-10-05T19:09:03.682Z,98842.63
2022-10-05T19:12:18.563Z,98847.22
2022-10-05T19:15:32.882Z,98842.31
2022-10-05T19:19:04.477Z,98847.00
2022-10-05T19:22:17.807Z,98853.75
2022-10-05T19:25:39.792Z,98846.97
2022-10-05T19:28:57.756Z,98848.25
2022-10-05T19:32:07.429Z,98848.50
2022-10-05T19:35:28.284Z,98851.41
2022-10-05T19:38:44.456Z,98848.22
2022-10-05T19:42:08.273Z,98842.25
2022-10-05T19:45:22.691Z,98845.16
2022-10-05T19:48:35.643Z,98844.56
2022-10-05T19:51:54.431Z,98849.09
2022-10-05T19:55:16.095Z,98852.81
2022-10-05T19:58:24.632Z,98861.81
2022-10-05T20:01:36.586Z,98844.47
2022-10-05T20:04:44.651Z,98853.38
2022-10-05T20:07:53.892Z,98858.81
2022-10-05T20:11:14.370Z,98859.06
2022-10-05T20:14:22.647Z,98856.84
2022-10-05T20:17:45.006Z,98856.19
2022-10-05T20:20:51.426Z,98859.91
2022-10-05T20:24:12.626Z,98859.91
2022-10-05T20:27:45.458Z,98849.56
2022-10-05T20:30:51.906Z,98851.75
2022-10-05T20:33:58.347Z,98853.72
2022-10-05T20:37:03.912Z,98856.53
2022-10-05T20:40:15.059Z,98853.94
2022-10-05T20:43:20.631Z,98852.44
2022-10-05T20:46:27.106Z,98853.44
2022-10-05T20:49:36.778Z,98857.09
2022-10-05T20:52:43.432Z,98849.31
2022-10-05T20:55:51.799Z,98858.00
2022-10-05T20:58:58.248Z,98855.47
2022-10-05T21:02:06.884Z,98848.44
2022-10-05T21:05:13.379Z,98845.81
2022-10-05T21:08:19.059Z,98843.34
2022-10-05T21:11:28.777Z,98851.25
2022-10-05T21:14:34.613Z,98856.50
2022-10-05T21:17:41.324Z,98858.38
2022-10-05T21:20:50.219Z,98857.50
2022-10-05T21:23:57.087Z,98857.56
2022-10-05T21:27:06.834Z,98860.19
2022-10-05T21:30:14.001Z,98868.19
2022-10-05T21:33:19.633Z,98867.31
2022-10-05T21:36:32.293Z,98860.38
2022-10-05T21:39:37.937Z,98866.56
2022-10-05T21:42:47.587Z,98861.41
2022-10-05T21:45:53.265Z,98858.94
2022-10-05T21:48:59.770Z,98864.25
2022-10-05T21:52:08.299Z,98864.44
2022-10-05T21:55:15.994Z,98857.63
2022-10-05T21:58:26.210Z,98857.88
2022-10-05T22:01:34.969Z,98858.94
2022-10-05T22:04:40.763Z,98867.78
2022-10-05T22:07:47.193Z,98853.03
2022-10-05T22:10:54.922Z,98853.03
2022-10-05T22:14:05.083Z,98864.56
2022-10-05T22:17:17.575Z,98854.19
2022-10-05T22:20:24.759Z,98856.88
2022-10-05T22:23:30.438Z,98856.06
2022-10-05T22:26:37.614Z,98856.13
2022-10-05T22:29:46.513Z,98857.91
2022-10-05T22:32:52.940Z,98858.91
2022-10-05T22:35:59.996Z,98852.81
2022-10-05T22:39:08.231Z,98862.47
2022-10-05T22:42:13.796Z,98862.38
2022-10-05T22:45:23.023Z,98866.88
2022-10-05T22:48:28.805Z,98866.00
2022-10-05T22:51:35.911Z,98869.41
2022-10-05T22:54:41.549Z,98876.53
2022-10-05T22:57:49.350Z,98880.09
2022-10-05T23:00:58.997Z,98883.63
2022-10-05T23:04:08.975Z,98882.88
2022-10-05T23:07:15.329Z,98894.28
2022-10-05T23:10:22.324Z,98893.44
2022-10-05T23:13:28.104Z,98898.78
2022-10-05T23:16:37.524Z,98908.38
2022-10-05T23:19:43.084Z,98907.50
2022-10-05T23:22:49.899Z,98910.03
2022-10-05T23:25:55.795Z,98911.00
2022-10-05T23:29:04.274Z,98911.91
2022-10-05T23:32:12.850Z,98896.16
2022-10-05T23:35:19.508Z,98912.81
2022-10-05T23:38:25.701Z,98925.94
2022-10-05T23:41:32.628Z,98926.03
2022-10-05T23:44:38.218Z,98918.31
2022-10-05T23:47:49.084Z,98929.50
2022-10-05T23:50:55.896Z,98931.34
2022-10-05T23:54:03.568Z,98936.59
2022-10-05T23:57:09.580Z,98933.19
